createdAt,value
2022-12-18T00:00:34.506Z,1026.95
2022-12-18T00:01:34.730Z,1027.00
2022-12-18T00:02:34.967Z,1026.97
2022-12-18T00:03:35.229Z,1026.99
2022-12-18T00:04:35.144Z,1027.01
2022-12-18T00:05:35.337Z,1026.99
2022-12-18T00:06:35.596Z,1027.03
2022-12-18T00:07:35.681Z,1027.04
2022-12-18T00:08:35.895Z,1027.07
2022-12-18T00:09:39.343Z,1027.14
2022-12-18T00:10:36.293Z,1027.05
2022-12-18T00:11:36.501Z,1027.03
2022-12-18T00:12:36.736Z,1027.10
2022-12-18T00:13:37.307Z,1027.09
2022-12-18T00:14:37.189Z,1027.12
2022-12-18T00:15:37.407Z,1027.19
2022-12-18T00:16:37.642Z,1027.11
2022-12-18T00:17:37.888Z,1027.10
2022-12-18T00:18:38.512Z,1027.17
2022-12-18T00:19:38.343Z,1027.14
2022-12-18T00:20:38.563Z,1027.15
2022-12-18T00:21:38.776Z,1027.13
2022-12-18T00:22:39.012Z,1027.16
2022-12-18T00:23:39.679Z,1027.14
2022-12-18T00:24:39.372Z,1027.21
2022-12-18T00:25:39.576Z,1027.08
2022-12-18T00:26:39.783Z,1027.07
2022-12-18T00:27:40.046Z,1027.07
2022-12-18T00:28:40.260Z,1027.02
2022-12-18T00:29:40.480Z,1027.06
2022-12-18T00:30:40.691Z,1027.04
2022-12-18T00:31:40.976Z,1027.08
2022-12-18T00:32:41.055Z,1027.09
2022-12-18T00:33:41.664Z,1027.11
2022-12-18T00:34:41.441Z,1027.11
2022-12-18T00:35:41.661Z,1027.05
2022-12-18T00:36:41.861Z,1027.06
2022-12-18T00:37:42.086Z,1027.05
2022-12-18T00:38:42.286Z,1027.00
2022-12-18T00:39:42.506Z,1026.99
2022-12-18T00:40:42.708Z,1026.98
2022-12-18T00:41:42.923Z,1026.97
2022-12-18T00:42:43.148Z,1027.01
2022-12-18T00:43:43.357Z,1027.01
2022-12-18T00:44:43.557Z,1026.99
2022-12-18T00:45:43.785Z,1026.94
2022-12-18T00:46:43.935Z,1026.96
2022-12-18T00:47:44.178Z,1026.92
2022-12-18T00:48:44.302Z,1027.01
2022-12-18T00:49:44.469Z,1027.04
2022-12-18T00:50:44.683Z,1027.03
2022-12-18T00:51:44.904Z,1027.04
2022-12-18T00:52:45.124Z,1027.07
2022-12-18T00:53:45.342Z,1027.02
2022-12-18T00:54:45.554Z,1026.96
2022-12-18T00:55:45.766Z,1026.94
2022-12-18T00:56:49.210Z,1026.93
2022-12-18T00:57:46.182Z,1026.91
2022-12-18T00:58:46.387Z,1026.91
2022-12-18T00:59:46.613Z,1026.99
2022-12-18T01:00:46.858Z,1026.98
2022-12-18T01:01:47.528Z,1026.96
2022-12-18T01:02:47.439Z,1027.01
2022-12-18T01:03:47.468Z,1027.00
2022-12-18T01:04:47.687Z,1026.97
2022-12-18T01:05:47.896Z,1026.95
2022-12-18T01:06:48.164Z,1026.97
2022-12-18T01:07:48.282Z,1026.97
2022-12-18T01:08:48.481Z,1026.99
2022-12-18T01:09:48.713Z,1026.97
2022-12-18T01:10:48.918Z,1027.00
2022-12-18T01:11:49.145Z,1027.02
2022-12-18T01:12:49.390Z,1027.02
2022-12-18T01:13:49.619Z,1027.04
2022-12-18T01:14:49.832Z,1027.05
2022-12-18T01:15:50.050Z,1027.06
2022-12-18T01:16:50.298Z,1027.11
2022-12-18T01:17:50.516Z,1027.06
2022-12-18T01:18:50.721Z,1027.11
2022-12-18T01:19:50.947Z,1027.15
2022-12-18T01:20:51.169Z,1027.14
2022-12-18T01:21:51.388Z,1027.18
2022-12-18T01:22:51.632Z,1027.19
2022-12-18T01:23:51.744Z,1027.22
2022-12-18T01:24:51.965Z,1027.24
2022-12-18T01:25:52.184Z,1027.21
2022-12-18T01:26:52.394Z,1027.30
2022-12-18T01:27:52.622Z,1027.30
2022-12-18T01:28:52.828Z,1027.33
2022-12-18T01:29:53.060Z,1027.37
2022-12-18T01:30:53.282Z,1027.40
2022-12-18T01:31:53.544Z,1027.38
2022-12-18T01:32:53.678Z,1027.37
2022-12-18T01:33:53.899Z,1027.39
2022-12-18T01:34:54.117Z,1027.36
2022-12-18T01:35:54.330Z,1027.39
2022-12-18T01:36:54.538Z,1027.38
2022-12-18T01:37:54.787Z,1027.36
2022-12-18T01:38:54.889Z,1027.32
2022-12-18T01:39:55.109Z,1027.35
2022-12-18T01:40:55.318Z,1027.36
2022-12-18T01:41:55.559Z,1027.36
2022-12-18T01:42:55.780Z,1027.39
2022-12-18T01:43:56.000Z,1027.39
2022-12-18T01:44:56.213Z,1027.36
2022-12-18T01:45:56.495Z,1027.34
2022-12-18T01:46:56.582Z,1027.42
2022-12-18T01:47:57.341Z,1027.44
2022-12-18T01:48:57.032Z,1027.49
2022-12-18T01:49:57.225Z,1027.49
2022-12-18T01:50:57.433Z,1027.47
2022-12-18T01:51:57.665Z,1027.46
2022-12-18T01:52:57.931Z,1027.50
2022-12-18T01:53:58.041Z,1027.46
2022-12-18T01:54:58.245Z,1027.47
2022-12-18T01:55:58.473Z,1027.47
2022-12-18T01:56:58.684Z,1027.46
2022-12-18T01:57:58.928Z,1027.49
2022-12-18T01:58:59.135Z,1027.48
2022-12-18T01:59:59.362Z,1027.47
2022-12-18T02:00:59.630Z,1027.49
2022-12-18T02:01:59.950Z,1027.48
2022-12-18T02:02:59.952Z,1027.49
2022-12-18T02:04:00.079Z,1027.47
2022-12-18T02:05:00.287Z,1027.46
2022-12-18T02:06:00.515Z,1027.48
2022-12-18T02:07:00.732Z,1027.46
2022-12-18T02:08:00.970Z,1027.46
2022-12-18T02:09:01.176Z,1027.46
2022-12-18T02:10:01.378Z,1027.46
2022-12-18T02:11:01.594Z,1027.46
2022-12-18T02:12:01.803Z,1027.43
2022-12-18T02:13:02.015Z,1027.44
2022-12-18T02:14:02.232Z,1027.43
2022-12-18T02:15:02.386Z,1027.45
2022-12-18T02:16:02.606Z,1027.43
2022-12-18T02:17:02.876Z,1027.45
2022-12-18T02:18:02.990Z,1027.48
2022-12-18T02:19:03.202Z,1027.46
2022-12-18T02:20:03.431Z,1027.53
2022-12-18T02:21:03.635Z,1027.53
2022-12-18T02:22:03.851Z,1027.52
2022-12-18T02:23:04.085Z,1027.52
2022-12-18T02:24:04.299Z,1027.52
2022-12-18T02:25:04.516Z,1027.55
2022-12-18T02:26:04.732Z,1027.53
2022-12-18T02:27:04.961Z,1027.56
2022-12-18T02:28:05.187Z,1027.49
2022-12-18T02:29:05.394Z,1027.52
2022-12-18T02:30:05.617Z,1027.46
2022-12-18T02:31:05.867Z,1027.51
2022-12-18T02:32:05.982Z,1027.50
2022-12-18T02:33:06.210Z,1027.51
2022-12-18T02:34:06.364Z,1027.52
2022-12-18T02:35:06.571Z,1027.54
2022-12-18T02:36:06.778Z,1027.57
2022-12-18T02:37:06.987Z,1027.59
2022-12-18T02:38:07.231Z,1027.71
2022-12-18T02:39:07.437Z,1027.72
2022-12-18T02:40:07.668Z,1027.78
2022-12-18T02:41:07.902Z,1027.79
2022-12-18T02:42:08.120Z,1027.81
2022-12-18T02:43:08.339Z,1027.79
2022-12-18T02:44:08.567Z,1027.80
2022-12-18T02:45:08.779Z,1027.77
2022-12-18T02:46:08.970Z,1027.77
2022-12-18T02:47:09.159Z,1027.73
2022-12-18T02:48:09.382Z,1027.71
2022-12-18T02:49:09.598Z,1027.71
2022-12-18T02:50:09.809Z,1027.66
2022-12-18T02:51:10.010Z,1027.70
2022-12-18T02:52:10.229Z,1027.70
2022-12-18T02:53:10.449Z,1027.69
2022-12-18T02:54:10.670Z,1027.73
2022-12-18T02:55:10.874Z,1027.71
2022-12-18T02:56:11.080Z,1027.67
2022-12-18T02:57:11.284Z,1027.68
2022-12-18T02:58:11.507Z,1027.67
2022-12-18T02:59:11.717Z,1027.67
2022-12-18T03:00:11.932Z,1027.70
2022-12-18T03:01:12.177Z,1027.69
2022-12-18T03:02:12.593Z,1027.73
2022-12-18T03:03:12.545Z,1027.73
2022-12-18T03:04:12.681Z,1027.76
2022-12-18T03:05:12.880Z,1027.73
2022-12-18T03:06:13.110Z,1027.69
2022-12-18T03:07:13.339Z,1027.70
2022-12-18T03:08:13.568Z,1027.70
2022-12-18T03:09:13.686Z,1027.72
2022-12-18T03:10:13.910Z,1027.72
2022-12-18T03:11:14.117Z,1027.76
2022-12-18T03:12:14.371Z,1027.73
2022-12-18T03:13:14.487Z,1027.75
2022-12-18T03:14:14.715Z,1027.75
2022-12-18T03:15:17.764Z,1027.74
2022-12-18T03:16:15.186Z,1027.76
2022-12-18T03:17:15.327Z,1027.79
2022-12-18T03:18:15.563Z,1027.81
2022-12-18T03:19:15.769Z,1027.79
2022-12-18T03:20:16.004Z,1027.80
2022-12-18T03:21:16.214Z,1027.78
2022-12-18T03:22:16.431Z,1027.78
2022-12-18T03:23:16.652Z,1027.73
2022-12-18T03:24:16.873Z,1027.71
2022-12-18T03:25:17.082Z,1027.78
2022-12-18T03:26:17.307Z,1027.72
2022-12-18T03:27:17.522Z,1027.73
2022-12-18T03:28:17.754Z,1027.79
2022-12-18T03:29:17.957Z,1027.77
2022-12-18T03:30:18.199Z,1027.83
2022-12-18T03:31:18.452Z,1027.86
2022-12-18T03:32:18.663Z,1027.85
2022-12-18T03:33:18.877Z,1027.77
2022-12-18T03:34:19.106Z,1027.79
2022-12-18T03:35:19.319Z,1027.78
2022-12-18T03:36:19.547Z,1027.79
2022-12-18T03:37:19.765Z,1027.81
2022-12-18T03:38:19.987Z,1027.80
2022-12-18T03:39:20.206Z,1027.77
2022-12-18T03:40:20.429Z,1027.79
2022-12-18T03:41:20.645Z,1027.79
2022-12-18T03:42:20.874Z,1027.75
2022-12-18T03:43:21.083Z,1027.74
2022-12-18T03:44:21.315Z,1027.73
2022-12-18T03:45:21.531Z,1027.81
2022-12-18T03:46:21.824Z,1027.76
2022-12-18T03:47:21.979Z,1027.73
2022-12-18T03:48:22.212Z,1027.73
2022-12-18T03:49:22.435Z,1027.73
2022-12-18T03:50:22.669Z,1027.73
2022-12-18T03:51:22.899Z,1027.78
2022-12-18T03:52:23.112Z,1027.83
2022-12-18T03:53:23.330Z,1027.81
2022-12-18T03:54:23.559Z,1027.82
2022-12-18T03:55:23.778Z,1027.78
2022-12-18T03:56:24.011Z,1027.74
2022-12-18T03:57:24.237Z,1027.75
2022-12-18T03:58:24.462Z,1027.75
2022-12-18T03:59:24.677Z,1027.74
2022-12-18T04:00:24.903Z,1027.74
2022-12-18T04:01:25.222Z,1027.74
2022-12-18T04:02:25.511Z,1027.73
2022-12-18T04:03:26.808Z,1027.75
2022-12-18T04:04:25.790Z,1027.80
2022-12-18T04:05:25.994Z,1027.83
2022-12-18T04:06:26.229Z,1027.86
2022-12-18T04:07:26.448Z,1027.80
2022-12-18T04:08:26.682Z,1027.83
2022-12-18T04:09:26.900Z,1027.88
2022-12-18T04:10:27.132Z,1027.86
2022-12-18T04:11:27.341Z,1027.87
2022-12-18T04:12:27.560Z,1027.91
2022-12-18T04:13:27.784Z,1027.91
2022-12-18T04:14:34.922Z,1027.91
2022-12-18T04:15:30.751Z,1027.88
2022-12-18T04:16:28.270Z,1027.85
2022-12-18T04:17:28.489Z,1027.89
2022-12-18T04:18:28.737Z,1027.90
2022-12-18T04:19:28.844Z,1027.95
2022-12-18T04:20:29.086Z,1027.93
2022-12-18T04:21:29.307Z,1027.94
2022-12-18T04:22:29.528Z,1027.93
2022-12-18T04:23:29.766Z,1027.99
2022-12-18T04:24:29.992Z,1027.95
2022-12-18T04:25:30.210Z,1027.99
2022-12-18T04:26:30.450Z,1028.02
2022-12-18T04:27:30.660Z,1028.01
2022-12-18T04:28:30.894Z,1028.00
2022-12-18T04:29:31.109Z,1028.00
2022-12-18T04:30:31.327Z,1027.99
2022-12-18T04:31:31.565Z,1027.96
2022-12-18T04:32:31.767Z,1027.99
2022-12-18T04:33:32.006Z,1027.99
2022-12-18T04:34:32.221Z,1028.01
2022-12-18T04:35:32.459Z,1027.99
2022-12-18T04:36:32.672Z,1028.05
2022-12-18T04:37:32.924Z,1028.04
2022-12-18T04:38:33.044Z,1028.06
2022-12-18T04:39:33.261Z,1028.10
2022-12-18T04:40:33.474Z,1028.10
2022-12-18T04:41:33.701Z,1028.10
2022-12-18T04:42:33.940Z,1028.11
2022-12-18T04:43:34.068Z,1028.08
2022-12-18T04:44:34.281Z,1028.04
2022-12-18T04:45:34.507Z,1028.04
2022-12-18T04:46:34.768Z,1028.03
2022-12-18T04:47:34.885Z,1028.09
2022-12-18T04:48:35.105Z,1028.05
2022-12-18T04:49:35.334Z,1028.04
2022-12-18T04:50:35.551Z,1028.05
2022-12-18T04:51:35.785Z,1028.04
2022-12-18T04:52:36.002Z,1028.05
2022-12-18T04:53:36.428Z,1027.99
2022-12-18T04:54:36.393Z,1028.03
2022-12-18T04:55:36.614Z,1028.04
2022-12-18T04:56:36.821Z,1028.04
2022-12-18T04:57:37.046Z,1028.08
2022-12-18T04:58:37.269Z,1028.05
2022-12-18T04:59:37.491Z,1028.06
2022-12-18T05:00:37.714Z,1028.07
2022-12-18T05:01:38.043Z,1028.03
2022-12-18T05:02:38.199Z,1028.08
2022-12-18T05:03:38.770Z,1028.08
2022-12-18T05:04:38.463Z,1028.21
2022-12-18T05:05:38.653Z,1028.16
2022-12-18T05:06:38.874Z,1028.14
2022-12-18T05:07:39.098Z,1028.17
2022-12-18T05:08:39.341Z,1028.13
2022-12-18T05:09:39.568Z,1028.21
2022-12-18T05:10:39.783Z,1028.16
2022-12-18T05:11:40.016Z,1028.22
2022-12-18T05:12:40.232Z,1028.20
2022-12-18T05:13:41.047Z,1028.23
2022-12-18T05:14:40.596Z,1028.23
2022-12-18T05:15:40.845Z,1028.24
2022-12-18T05:16:41.047Z,1028.22
2022-12-18T05:17:41.273Z,1028.23
2022-12-18T05:18:41.502Z,1028.23
2022-12-18T05:19:41.729Z,1028.25
2022-12-18T05:20:41.936Z,1028.24
2022-12-18T05:21:42.169Z,1028.23
2022-12-18T05:22:42.321Z,1028.23
2022-12-18T05:23:43.022Z,1028.22
2022-12-18T05:24:42.704Z,1028.23
2022-12-18T05:25:42.939Z,1028.28
2022-12-18T05:26:43.170Z,1028.31
2022-12-18T05:27:43.784Z,1028.38
2022-12-18T05:28:43.578Z,1028.39
2022-12-18T05:29:43.821Z,1028.44
2022-12-18T05:30:44.052Z,1028.50
2022-12-18T05:31:44.320Z,1028.50
2022-12-18T05:32:44.495Z,1028.47
2022-12-18T05:33:44.740Z,1028.46
2022-12-18T05:34:44.966Z,1028.49
2022-12-18T05:35:45.195Z,1028.46
2022-12-18T05:36:45.420Z,1028.45
2022-12-18T05:37:45.660Z,1028.47
2022-12-18T05:38:45.884Z,1028.42
2022-12-18T05:39:46.124Z,1028.45
2022-12-18T05:40:46.336Z,1028.45
2022-12-18T05:41:46.585Z,1028.44
2022-12-18T05:42:46.783Z,1028.45
2022-12-18T05:43:47.031Z,1028.43
2022-12-18T05:44:47.265Z,1028.47
2022-12-18T05:45:47.488Z,1028.45
2022-12-18T05:46:47.751Z,1028.45
2022-12-18T05:47:47.949Z,1028.48
2022-12-18T05:48:48.189Z,1028.47
2022-12-18T05:49:48.429Z,1028.46
2022-12-18T05:50:48.652Z,1028.44
2022-12-18T05:51:48.919Z,1028.45
2022-12-18T05:52:49.122Z,1028.50
2022-12-18T05:53:49.377Z,1028.49
2022-12-18T05:54:49.515Z,1028.51
2022-12-18T05:55:49.638Z,1028.52
2022-12-18T05:56:49.862Z,1028.52
2022-12-18T05:57:50.094Z,1028.53
2022-12-18T05:58:50.355Z,1028.54
2022-12-18T05:59:50.475Z,1028.54
2022-12-18T06:00:50.685Z,1028.58
2022-12-18T06:01:50.988Z,1028.56
2022-12-18T06:02:51.208Z,1028.61
2022-12-18T06:03:51.325Z,1028.62
2022-12-18T06:04:51.446Z,1028.64
2022-12-18T06:05:51.680Z,1028.69
2022-12-18T06:06:51.901Z,1028.67
2022-12-18T06:07:52.135Z,1028.70
2022-12-18T06:08:52.300Z,1028.68
2022-12-18T06:09:52.440Z,1028.75
2022-12-18T06:10:52.672Z,1028.75
2022-12-18T06:11:52.909Z,1028.71
2022-12-18T06:12:53.138Z,1028.68
2022-12-18T06:13:57.925Z,1028.67
2022-12-18T06:14:54.557Z,1028.71
2022-12-18T06:15:53.839Z,1028.74
2022-12-18T06:16:53.918Z,1028.75
2022-12-18T06:17:54.148Z,1028.75
2022-12-18T06:18:54.457Z,1028.81
2022-12-18T06:19:54.566Z,1028.75
2022-12-18T06:20:54.785Z,1028.77
2022-12-18T06:21:55.023Z,1028.86
2022-12-18T06:22:55.242Z,1028.80
2022-12-18T06:23:55.502Z,1028.83
2022-12-18T06:24:55.612Z,1028.77
2022-12-18T06:25:55.868Z,1028.78
2022-12-18T06:26:56.084Z,1028.82
2022-12-18T06:27:56.346Z,1028.79
2022-12-18T06:28:56.592Z,1028.76
2022-12-18T06:29:56.711Z,1028.77
2022-12-18T06:30:56.935Z,1028.81
2022-12-18T06:31:57.183Z,1028.83
2022-12-18T06:32:57.398Z,1028.85
2022-12-18T06:33:57.651Z,1028.83
2022-12-18T06:34:57.778Z,1028.85
2022-12-18T06:36:01.118Z,1028.90
2022-12-18T06:36:58.180Z,1028.89
2022-12-18T06:37:58.408Z,1028.91
2022-12-18T06:38:58.640Z,1028.94
2022-12-18T06:39:58.877Z,1028.98
2022-12-18T06:40:59.110Z,1029.00
2022-12-18T06:41:59.346Z,1029.04
2022-12-18T06:42:59.588Z,1029.04
2022-12-18T06:44:00.316Z,1029.12
2022-12-18T06:45:00.023Z,1029.10
2022-12-18T06:46:00.337Z,1029.05
2022-12-18T06:47:00.497Z,1029.02
2022-12-18T06:48:00.725Z,1028.99
2022-12-18T06:49:00.971Z,1029.02
2022-12-18T06:50:01.217Z,1028.99
2022-12-18T06:51:01.354Z,1029.04
2022-12-18T06:52:01.587Z,1029.07
2022-12-18T06:53:01.742Z,1029.13
2022-12-18T06:54:01.924Z,1029.17
2022-12-18T06:55:02.027Z,1029.22
2022-12-18T06:56:07.825Z,1029.26
2022-12-18T06:57:03.423Z,1029.33
2022-12-18T06:58:02.649Z,1029.31
2022-12-18T06:59:02.898Z,1029.31
2022-12-18T07:00:03.133Z,1029.28
2022-12-18T07:01:03.406Z,1029.29
2022-12-18T07:02:03.653Z,1029.24
2022-12-18T07:03:03.747Z,1029.25
2022-12-18T07:04:03.976Z,1029.22
2022-12-18T07:05:10.299Z,1029.20
2022-12-18T07:06:05.256Z,1029.22
2022-12-18T07:07:04.479Z,1029.25
2022-12-18T07:08:04.719Z,1029.23
2022-12-18T07:09:04.954Z,1029.23
2022-12-18T07:10:05.218Z,1029.16
2022-12-18T07:11:05.318Z,1029.17
2022-12-18T07:12:05.543Z,1029.17
2022-12-18T07:13:05.752Z,1029.13
2022-12-18T07:14:06.000Z,1029.14
2022-12-18T07:15:06.115Z,1029.17
2022-12-18T07:16:10.898Z,1029.17
2022-12-18T07:17:07.549Z,1029.20
2022-12-18T07:18:06.750Z,1029.25
2022-12-18T07:19:07.024Z,1029.23
2022-12-18T07:20:07.146Z,1029.27
2022-12-18T07:21:07.365Z,1029.26
2022-12-18T07:22:07.588Z,1029.22
2022-12-18T07:23:07.817Z,1029.19
2022-12-18T07:24:08.068Z,1029.18
2022-12-18T07:25:08.178Z,1029.19
2022-12-18T07:26:08.422Z,1029.20
2022-12-18T07:27:08.551Z,1029.25
2022-12-18T07:28:11.692Z,1029.26
2022-12-18T07:29:09.933Z,1029.27
2022-12-18T07:30:09.036Z,1029.21
2022-12-18T07:31:09.246Z,1029.23
2022-12-18T07:32:09.539Z,1029.18
2022-12-18T07:33:09.648Z,1029.23
2022-12-18T07:34:09.895Z,1029.22
2022-12-18T07:35:10.003Z,1029.24
2022-12-18T07:36:10.243Z,1029.30
2022-12-18T07:37:10.462Z,1029.25
2022-12-18T07:38:10.691Z,1029.29
2022-12-18T07:39:10.923Z,1029.27
2022-12-18T07:40:11.186Z,1029.27
2022-12-18T07:41:11.323Z,1029.25
2022-12-18T07:42:11.443Z,1029.19
2022-12-18T07:43:11.663Z,1029.25
2022-12-18T07:44:11.913Z,1029.17
2022-12-18T07:45:12.086Z,1029.19
2022-12-18T07:46:12.421Z,1029.21
2022-12-18T07:47:12.516Z,1029.24
2022-12-18T07:48:12.519Z,1029.31
2022-12-18T07:49:12.636Z,1029.29
2022-12-18T07:50:12.869Z,1029.27
2022-12-18T07:51:13.095Z,1029.24
2022-12-18T07:52:13.328Z,1029.19
2022-12-18T07:53:13.543Z,1029.14
2022-12-18T07:54:13.764Z,1029.14
2022-12-18T07:55:13.989Z,1029.15
2022-12-18T07:56:31.127Z,1029.12
2022-12-18T07:57:41.358Z,1029.18
2022-12-18T07:58:15.582Z,1029.18
2022-12-18T07:59:14.809Z,1029.18
2022-12-18T08:00:15.082Z,1029.23
2022-12-18T08:01:15.274Z,1029.19
2022-12-18T08:02:15.581Z,1029.24
2022-12-18T08:03:15.665Z,1029.23
2022-12-18T08:04:15.868Z,1029.24
2022-12-18T08:05:15.967Z,1029.26
2022-12-18T08:06:16.200Z,1029.24
2022-12-18T08:07:16.316Z,1029.28
2022-12-18T08:08:16.577Z,1029.29
2022-12-18T08:09:16.697Z,1029.31
2022-12-18T08:10:16.934Z,1029.37
2022-12-18T08:11:17.170Z,1029.34
2022-12-18T08:12:17.397Z,1029.35
2022-12-18T08:13:17.617Z,1029.33
2022-12-18T08:14:17.854Z,1029.40
2022-12-18T08:15:18.084Z,1029.31
2022-12-18T08:16:18.440Z,1029.33
2022-12-18T08:17:18.453Z,1029.29
2022-12-18T08:18:18.688Z,1029.34
2022-12-18T08:19:18.919Z,1029.33
2022-12-18T08:20:19.167Z,1029.35
2022-12-18T08:21:19.281Z,1029.36
2022-12-18T08:22:19.429Z,1029.41
2022-12-18T08:23:19.666Z,1029.40
2022-12-18T08:24:19.896Z,1029.45
2022-12-18T08:25:20.105Z,1029.39
2022-12-18T08:26:20.978Z,1029.48
2022-12-18T08:27:29.370Z,1029.42
2022-12-18T08:28:21.652Z,1029.40
2022-12-18T08:29:21.747Z,1029.42
2022-12-18T08:30:21.005Z,1029.45
2022-12-18T08:31:21.292Z,1029.44
2022-12-18T08:32:21.416Z,1029.42
2022-12-18T08:33:21.508Z,1029.45
2022-12-18T08:34:21.738Z,1029.46
2022-12-18T08:35:21.963Z,1029.47
2022-12-18T08:36:22.184Z,1029.44
2022-12-18T08:37:22.393Z,1029.50
2022-12-18T08:38:22.605Z,1029.53
2022-12-18T08:39:22.821Z,1029.50
2022-12-18T08:40:23.044Z,1029.52
2022-12-18T08:41:23.284Z,1029.54
2022-12-18T08:42:23.386Z,1029.58
2022-12-18T08:43:23.620Z,1029.60
2022-12-18T08:44:23.846Z,1029.59
2022-12-18T08:45:24.075Z,1029.64
2022-12-18T08:46:24.324Z,1029.66
2022-12-18T08:47:24.526Z,1029.69
2022-12-18T08:48:24.748Z,1029.66
2022-12-18T08:49:24.974Z,1029.66
2022-12-18T08:50:25.239Z,1029.70
2022-12-18T08:51:25.381Z,1029.66
2022-12-18T08:52:25.494Z,1029.65
2022-12-18T08:53:25.707Z,1029.69
2022-12-18T08:54:25.952Z,1029.78
2022-12-18T08:55:26.189Z,1029.77
2022-12-18T08:56:26.308Z,1029.79
2022-12-18T08:57:26.448Z,1029.81
2022-12-18T08:58:26.673Z,1029.85
2022-12-18T08:59:26.897Z,1029.83
2022-12-18T09:00:27.124Z,1029.79
2022-12-18T09:01:27.432Z,1029.79
2022-12-18T09:02:27.707Z,1029.78
2022-12-18T09:03:27.776Z,1029.80
2022-12-18T09:04:27.946Z,1029.75
2022-12-18T09:05:28.215Z,1029.78
2022-12-18T09:06:28.401Z,1029.78
2022-12-18T09:07:28.528Z,1029.80
2022-12-18T09:08:28.748Z,1029.85
2022-12-18T09:09:28.977Z,1029.86
2022-12-18T09:10:29.182Z,1029.92
2022-12-18T09:11:29.402Z,1029.89
2022-12-18T09:12:29.621Z,1029.91
2022-12-18T09:13:29.720Z,1029.88
2022-12-18T09:14:29.942Z,1029.85
2022-12-18T09:15:30.151Z,1029.85
2022-12-18T09:16:32.492Z,1029.87
2022-12-18T09:17:30.638Z,1029.93
2022-12-18T09:18:30.732Z,1029.92
2022-12-18T09:19:30.941Z,1029.94
2022-12-18T09:20:31.137Z,1029.94
2022-12-18T09:21:31.351Z,1029.90
2022-12-18T09:22:31.514Z,1029.92
2022-12-18T09:23:31.719Z,1029.90
2022-12-18T09:24:31.924Z,1029.91
2022-12-18T09:25:32.146Z,1029.88
2022-12-18T09:26:32.354Z,1029.89
2022-12-18T09:27:32.564Z,1029.88
2022-12-18T09:28:32.774Z,1029.86
2022-12-18T09:29:32.985Z,1029.88
2022-12-18T09:30:33.198Z,1029.91
2022-12-18T09:31:33.361Z,1029.94
2022-12-18T09:32:33.562Z,1029.91
2022-12-18T09:33:33.783Z,1029.99
2022-12-18T09:34:34.011Z,1029.92
2022-12-18T09:35:34.232Z,1029.93
2022-12-18T09:36:34.462Z,1029.92
2022-12-18T09:37:34.671Z,1029.92
2022-12-18T09:38:34.865Z,1029.86
2022-12-18T09:39:35.077Z,1029.82
2022-12-18T09:40:35.288Z,1029.76
2022-12-18T09:41:35.515Z,1029.80
2022-12-18T09:42:35.741Z,1029.77
2022-12-18T09:43:35.959Z,1029.75
2022-12-18T09:44:43.064Z,1029.72
2022-12-18T09:45:37.354Z,1029.74
2022-12-18T09:46:36.533Z,1029.78
2022-12-18T09:47:36.738Z,1029.81
2022-12-18T09:48:37.165Z,1029.77
2022-12-18T09:49:37.170Z,1029.83
2022-12-18T09:50:37.390Z,1029.71
2022-12-18T09:51:37.618Z,1029.72
2022-12-18T09:52:37.832Z,1029.71
2022-12-18T09:53:38.058Z,1029.71
2022-12-18T09:54:38.290Z,1029.68
2022-12-18T09:55:38.415Z,1029.62
2022-12-18T09:56:38.634Z,1029.63
2022-12-18T09:57:38.861Z,1029.60
2022-12-18T09:58:39.472Z,1029.53
2022-12-18T09:59:39.265Z,1029.53
2022-12-18T10:00:39.489Z,1029.47
2022-12-18T10:01:44.360Z,1029.44
2022-12-18T10:02:41.033Z,1029.36
2022-12-18T10:03:40.088Z,1029.29
2022-12-18T10:04:40.335Z,1029.27
2022-12-18T10:05:40.435Z,1029.23
2022-12-18T10:06:40.649Z,1029.26
2022-12-18T10:07:40.876Z,1029.26
2022-12-18T10:08:41.529Z,1029.19
2022-12-18T10:09:41.228Z,1029.19
2022-12-18T10:10:41.450Z,1029.18
2022-12-18T10:11:41.678Z,1029.16
2022-12-18T10:12:41.886Z,1029.24
2022-12-18T10:13:42.089Z,1029.21
2022-12-18T10:14:49.245Z,1029.24
2022-12-18T10:15:42.479Z,1029.21
2022-12-18T10:16:42.571Z,1029.19
2022-12-18T10:17:42.790Z,1029.19
2022-12-18T10:18:43.250Z,1029.22
2022-12-18T10:19:43.165Z,1029.19
2022-12-18T10:20:43.374Z,1029.27
2022-12-18T10:21:43.589Z,1029.27
2022-12-18T10:22:43.793Z,1029.27
2022-12-18T10:23:48.193Z,1029.27
2022-12-18T10:24:44.182Z,1029.32
2022-12-18T10:25:44.427Z,1029.32
2022-12-18T10:26:44.511Z,1029.25
2022-12-18T10:27:44.711Z,1029.21
2022-12-18T10:28:45.123Z,1029.21
2022-12-18T10:29:45.098Z,1029.21
2022-12-18T10:30:45.414Z,1029.23
2022-12-18T10:31:45.526Z,1029.23
2022-12-18T10:32:45.718Z,1029.20
2022-12-18T10:33:46.896Z,1029.15
2022-12-18T10:34:46.131Z,1029.19
2022-12-18T10:35:46.251Z,1029.16
2022-12-18T10:36:46.346Z,1029.17
2022-12-18T10:37:46.572Z,1029.20
2022-12-18T10:38:46.668Z,1029.06
2022-12-18T10:39:46.886Z,1029.11
2022-12-18T10:40:47.123Z,1029.10
2022-12-18T10:41:47.271Z,1029.07
2022-12-18T10:42:47.371Z,1029.18
2022-12-18T10:43:47.586Z,1029.17
2022-12-18T10:44:47.790Z,1029.06
2022-12-18T10:45:48.038Z,1029.11
2022-12-18T10:46:48.230Z,1029.02
2022-12-18T10:47:48.319Z,1029.01
2022-12-18T10:48:48.532Z,1029.04
2022-12-18T10:49:48.755Z,1028.96
2022-12-18T10:51:10.209Z,1029.01
2022-12-18T10:51:50.037Z,1028.90
2022-12-18T10:52:49.215Z,1028.97
2022-12-18T10:53:49.363Z,1028.87
2022-12-18T10:54:49.534Z,1028.85
2022-12-18T10:55:49.763Z,1028.86
2022-12-18T10:56:49.962Z,1028.86
2022-12-18T10:57:50.171Z,1028.81
2022-12-18T10:58:50.374Z,1028.84
2022-12-18T10:59:50.595Z,1028.83
2022-12-18T11:00:50.831Z,1028.80
2022-12-18T11:01:51.016Z,1028.83
2022-12-18T11:02:51.361Z,1028.85
2022-12-18T11:03:51.373Z,1028.80
2022-12-18T11:04:51.534Z,1028.77
2022-12-18T11:05:51.759Z,1028.77
2022-12-18T11:06:51.955Z,1028.80
2022-12-18T11:07:52.155Z,1028.75
2022-12-18T11:08:52.341Z,1028.66
2022-12-18T11:09:52.546Z,1028.72
2022-12-18T11:10:52.739Z,1028.68
2022-12-18T11:11:52.957Z,1028.70
2022-12-18T11:12:53.145Z,1028.76
2022-12-18T11:13:53.345Z,1028.73
2022-12-18T11:14:53.536Z,1028.75
2022-12-18T11:15:53.803Z,1028.79
2022-12-18T11:17:54.992Z,1028.83
2022-12-18T11:18:54.190Z,1028.79
2022-12-18T11:19:54.423Z,1028.84
2022-12-18T11:20:58.507Z,1028.86
2022-12-18T11:21:54.740Z,1028.77
2022-12-18T11:22:54.933Z,1028.81
2022-12-18T11:23:55.157Z,1028.80
2022-12-18T11:25:22.821Z,1028.82
2022-12-18T11:25:56.397Z,1028.82
2022-12-18T11:26:59.679Z,1028.84
2022-12-18T11:27:55.729Z,1028.75
2022-12-18T11:28:55.929Z,1028.81
2022-12-18T11:29:56.139Z,1028.80
2022-12-18T11:30:56.402Z,1028.78
2022-12-18T11:31:56.456Z,1028.76
2022-12-18T11:32:56.660Z,1028.75
2022-12-18T11:34:26.862Z,1028.73
2022-12-18T11:34:59.270Z,1028.70
2022-12-18T11:35:57.135Z,1028.71
2022-12-18T11:36:57.329Z,1028.68
2022-12-18T11:37:57.536Z,1028.69
2022-12-18T11:38:57.726Z,1028.62
2022-12-18T11:39:57.932Z,1028.59
2022-12-18T11:40:58.131Z,1028.62
2022-12-18T11:41:58.327Z,1028.64
2022-12-18T11:42:58.522Z,1028.68
2022-12-18T11:43:58.744Z,1028.73
2022-12-18T11:44:58.951Z,1028.71
2022-12-18T11:45:59.162Z,1028.80
2022-12-18T11:46:59.428Z,1028.80
2022-12-18T11:47:59.512Z,1028.83
2022-12-18T11:48:59.692Z,1028.87
2022-12-18T11:49:59.895Z,1028.92
2022-12-18T11:51:00.111Z,1028.94
2022-12-18T11:52:00.304Z,1028.92
2022-12-18T11:53:05.547Z,1029.00
2022-12-18T11:54:01.646Z,1028.94
2022-12-18T11:55:00.843Z,1028.97
2022-12-18T11:56:01.094Z,1028.98
2022-12-18T11:57:01.190Z,1029.04
2022-12-18T11:58:01.394Z,1029.00
2022-12-18T11:59:01.583Z,1028.98
2022-12-18T12:00:01.838Z,1029.01
2022-12-18T12:01:01.929Z,1029.02
2022-12-18T12:02:02.268Z,1029.05
2022-12-18T12:03:02.278Z,1029.04
2022-12-18T12:04:02.495Z,1029.05
2022-12-18T12:05:02.591Z,1029.08
2022-12-18T12:06:02.803Z,1029.19
2022-12-18T12:07:03.527Z,1029.11
2022-12-18T12:08:03.123Z,1029.16
2022-12-18T12:09:03.333Z,1029.09